Time;durP1;ratioP1;P1;durP2;ratioP2;P2;SDS_P1;SDS_P2;PMS_P1;PMS_P2;Temp;Humidity;BMP_temperature;BMP_pressure;BME280_temperature;BME280_humidity;BME280_pressure;Samples;Min_cycle;Max_cycle;Signal;HPM_P1;HPM_P2
2023/04/20 00:00:55;;;;;;;4.00;2.00;;;;;;;19.24;34.16;102180.69;4981894;28;20511;-69
2023/04/20 00:03:21;;;;;;;4.22;2.00;;;;;;;19.24;34.32;102183.34;4987823;28;20091;-70
2023/04/20 00:05:48;;;;;;;4.07;2.08;;;;;;;19.21;34.08;102173.81;4988897;28;20034;-69
2023/04/20 00:08:16;;;;;;;3.58;1.80;;;;;;;19.24;34.15;102178.88;4981841;28;20031;-69
2023/04/20 00:10:45;;;;;;;4.45;1.92;;;;;;;19.23;34.07;102181.63;4990631;28;20505;-70
2023/04/20 00:13:11;;;;;;;4.20;2.10;;;;;;;19.22;34.29;102170.22;4998024;28;20117;-70
2023/04/20 00:15:37;;;;;;;5.03;1.83;;;;;;;19.21;34.18;102171.16;4985260;28;20117;-70
2023/04/20 00:18:02;;;;;;;6.18;2.20;;;;;;;19.19;34.04;102171.25;4987816;28;20030;-70
2023/04/20 00:20:27;;;;;;;4.03;2.10;;;;;;;19.20;34.05;102162.41;4992463;28;20501;-69
2023/04/20 00:22:53;;;;;;;4.68;2.20;;;;;;;19.19;33.96;102160.69;4994637;28;20426;-70
2023/04/20 00:25:19;;;;;;;4.22;2.00;;;;;;;19.17;33.94;102157.31;5000815;28;20108;-70
2023/04/20 00:27:45;;;;;;;4.10;2.08;;;;;;;19.19;33.92;102154.56;4994776;28;20105;-69
2023/04/20 00:30:11;;;;;;;3.83;2.10;;;;;;;19.15;33.80;102143.34;4981816;28;20038;-70
2023/04/20 00:32:36;;;;;;;4.78;2.15;;;;;;;19.16;33.60;102145.03;4991179;28;20208;-71
2023/04/20 00:35:01;;;;;;;3.80;1.90;;;;;;;19.14;33.78;102133.72;5005079;28;20923;-69
2023/04/20 00:37:27;;;;;;;3.97;2.08;;;;;;;19.13;33.65;102133.81;4992306;28;20030;-72
2023/04/20 00:39:53;;;;;;;4.70;2.25;;;;;;;19.08;33.59;102118.25;4985348;28;20042;-69
2023/04/20 00:42:19;;;;;;;4.05;1.88;;;;;;;19.13;33.34;102123.25;4999954;28;20044;-72
2023/04/20 00:44:44;;;;;;;3.90;1.92;;;;;;;19.11;33.14;102120.72;4991214;28;20034;-69
2023/04/20 00:47:09;;;;;;;4.43;2.00;;;;;;;19.12;33.12;102125.06;4992076;28;20042;-69
2023/04/20 00:49:35;;;;;;;3.90;2.08;;;;;;;19.11;33.15;102117.22;4998090;28;20038;-68
2023/04/20 00:52:00;;;;;;;3.70;1.85;;;;;;;19.09;33.22;102106.75;4967542;28;20640;-68
2023/04/20 00:54:27;;;;;;;4.72;2.20;;;;;;;19.10;33.02;102112.88;4985549;28;20526;-68
2023/04/20 00:56:55;;;;;;;3.75;1.90;;;;;;;19.07;33.40;102103.34;4985019;28;20125;-70
2023/04/20 00:59:21;;;;;;;3.78;2.03;;;;;;;19.07;33.12;102098.06;4986331;28;20084;-69
2023/04/20 01:01:46;;;;;;;4.05;2.10;;;;;;;19.08;33.01;102099.78;4990701;28;20033;-69
2023/04/20 01:04:12;;;;;;;4.57;2.05;;;;;;;19.03;32.70;102093.94;4986747;28;20036;-70
2023/04/20 01:06:37;;;;;;;3.85;2.05;;;;;;;19.05;32.95;102094.69;5001709;28;20046;-71
2023/04/20 01:09:02;;;;;;;5.47;2.20;;;;;;;19.05;32.86;102083.28;5004251;28;20033;-72
2023/04/20 01:11:28;;;;;;;4.10;2.08;;;;;;;19.05;32.80;102078.81;5004286;28;20040;-70
2023/04/20 01:13:53;;;;;;;3.70;1.77;;;;;;;19.05;32.52;102084.13;4999898;28;20026;-69
2023/04/20 01:16:18;;;;;;;3.83;2.10;;;;;;;19.06;32.62;102082.31;4985346;28;20034;-68
2023/04/20 01:18:46;;;;;;;5.45;2.05;;;;;;;19.03;32.71;102072.81;4985106;28;20030;-70
2023/04/20 01:21:12;;;;;;;3.67;1.88;;;;;;;19.02;32.71;102066.66;4984339;28;20394;-69
2023/04/20 01:23:38;;;;;;;5.25;2.50;;;;;;;19.01;32.64;102064.97;4984353;28;20052;-69
2023/04/20 01:26:11;;;;;;;3.80;1.90;;;;;;;19.01;32.41;102056.22;4999684;28;20039;-70
2023/04/20 01:28:36;;;;;;;4.57;2.15;;;;;;;18.99;32.74;102052.81;5004170;28;20049;-70
2023/04/20 01:31:03;;;;;;;3.80;1.90;;;;;;;18.99;32.48;102060.72;5004350;28;20046;-69
2023/04/20 01:33:28;;;;;;;3.83;1.60;;;;;;;19.00;32.62;102055.34;4998661;28;20077;-71
2023/04/20 01:35:54;;;;;;;3.72;1.92;;;;;;;18.99;32.55;102056.31;4984191;28;20073;-72
2023/04/20 01:38:20;;;;;;;3.80;2.10;;;;;;;18.99;32.39;102051.03;4988302;28;20041;-70
2023/04/20 01:40:45;;;;;;;3.92;1.85;;;;;;;18.98;32.26;102046.69;5003823;28;20029;-70
2023/04/20 01:43:11;;;;;;;4.38;1.98;;;;;;;18.98;32.35;102046.69;4985474;28;20438;-69
2023/04/20 01:45:36;;;;;;;4.15;2.10;;;;;;;18.97;32.25;102036.22;4999462;28;20033;-69
2023/04/20 01:48:02;;;;;;;4.00;2.00;;;;;;;18.96;32.29;102034.53;5002986;28;20078;-68
2023/04/20 01:50:27;;;;;;;4.45;1.95;;;;;;;18.96;32.07;102034.53;4987522;28;20038;-68
2023/04/20 01:52:52;;;;;;;4.38;2.10;;;;;;;18.91;32.28;102026.06;4994140;28;20088;-69
2023/04/20 01:55:18;;;;;;;4.10;2.03;;;;;;;18.94;32.04;102024.06;4994525;28;20030;-72
2023/04/20 01:57:43;;;;;;;4.47;1.92;;;;;;;18.94;32.21;102024.06;4990512;28;20095;-70
2023/04/20 02:00:10;;;;;;;4.65;1.77;;;;;;;18.92;32.07;102017.19;4998798;28;20080;-69
2023/04/20 02:02:35;;;;;;;4.00;1.83;;;;;;;18.92;31.99;102011.91;5003126;28;20069;-69
2023/04/20 02:05:01;;;;;;;3.45;1.80;;;;;;;18.93;32.10;102009.16;4991170;28;20533;-71
2023/04/20 02:07:26;;;;;;;4.22;2.00;;;;;;;18.92;31.95;102006.63;4987074;28;20955;-72
2023/04/20 02:09:51;;;;;;;4.45;2.10;;;;;;;18.90;32.14;102001.44;5003409;28;20038;-69
2023/04/20 02:12:17;;;;;;;3.20;1.70;;;;;;;18.90;31.93;102001.44;5002608;28;20522;-70
2023/04/20 02:14:42;;;;;;;6.32;2.30;;;;;;;18.88;31.87;101989.28;4986498;28;20026;-68
2023/04/20 02:17:08;;;;;;;3.65;1.95;;;;;;;18.89;31.71;101997.09;4996077;28;20041;-69
2023/04/20 02:19:33;;;;;;;3.85;1.90;;;;;;;18.89;31.55;101989.19;4996629;28;20483;-69
2023/04/20 02:21:58;;;;;;;3.15;1.67;;;;;;;18.88;32.09;101990.13;5002770;28;20022;-69
2023/04/20 02:24:24;;;;;;;4.63;2.05;;;;;;;18.88;32.07;101987.47;4996763;28;20050;-68
2023/04/20 02:26:49;;;;;;;4.30;2.05;;;;;;;18.88;31.95;101981.34;5001576;28;20081;-71
2023/04/20 02:29:15;;;;;;;3.67;1.75;;;;;;;18.84;31.96;101980.72;5001716;28;20056;-68
2023/04/20 02:31:40;;;;;;;4.15;1.90;;;;;;;18.82;32.03;101966.75;4983383;28;20030;-69
2023/04/20 02:34:08;;;;;;;3.55;1.63;;;;;;;18.81;32.16;101967.69;4997046;28;20395;-71
2023/04/20 02:36:33;;;;;;;3.88;1.90;;;;;;;18.81;32.11;101972.97;4994932;28;20034;-70
2023/04/20 02:38:59;;;;;;;3.10;1.60;;;;;;;18.83;32.18;101973.69;5002598;28;20033;-69
2023/04/20 02:41:27;;;;;;;3.85;1.90;;;;;;;18.80;32.15;101968.63;5002356;28;20030;-69
2023/04/20 02:43:52;;;;;;;4.70;1.73;;;;;;;18.81;32.16;101967.69;4982973;28;20532;-69
2023/04/20 02:46:17;;;;;;;3.77;1.90;;;;;;;18.82;32.28;101975.50;4983152;28;20042;-71
2023/04/20 02:48:43;;;;;;;3.50;1.80;;;;;;;18.80;32.15;101964.22;4985979;28;20656;-68
2023/04/20 02:51:08;;;;;;;5.53;2.13;;;;;;;18.82;32.22;101964.09;5002646;28;20057;-71
2023/04/20 02:53:34;;;;;;;4.75;2.00;;;;;;;18.81;31.99;101955.31;5000004;28;20037;-69
2023/04/20 02:55:59;;;;;;;3.30;1.48;;;;;;;18.79;31.99;101959.88;5001185;28;20116;-70
2023/04/20 02:58:25;;;;;;;3.20;1.70;;;;;;;18.78;32.19;101955.50;4991686;28;20108;-70
2023/04/20 03:00:50;;;;;;;3.72;1.80;;;;;;;18.81;32.03;101965.03;4982903;28;20049;-71
2023/04/20 03:03:16;;;;;;;5.10;2.10;;;;;;;18.79;32.02;101965.16;4983101;28;20387;-71
2023/04/20 03:05:42;;;;;;;3.20;1.70;;;;;;;18.79;32.16;101949.28;4989816;28;20103;-71
2023/04/20 03:08:07;;;;;;;4.10;1.92;;;;;;;18.79;32.04;101948.47;4991352;28;20034;-71
2023/04/20 03:10:33;;;;;;;4.40;2.20;;;;;;;18.76;32.05;101940.75;4995191;28;20041;-71
2023/04/20 03:12:58;;;;;;;3.80;1.77;;;;;;;18.77;32.13;101940.63;5000407;28;20529;-69
2023/04/20 03:15:23;;;;;;;3.60;1.80;;;;;;;18.75;32.06;101928.47;5000419;28;20038;-69
2023/04/20 03:17:49;;;;;;;3.50;1.67;;;;;;;18.76;31.96;101933.66;5002163;28;20026;-68
2023/04/20 03:20:15;;;;;;;4.53;1.70;;;;;;;18.73;31.83;101920.66;5001855;28;20029;-71
2023/04/20 03:22:40;;;;;;;4.00;1.85;;;;;;;18.76;32.14;101917.81;4992026;28;20034;-68
2023/04/20 03:25:06;;;;;;;3.35;1.75;;;;;;;18.74;32.09;101922.34;4989339;28;20193;-68
2023/04/20 03:27:32;;;;;;;4.05;1.60;;;;;;;18.72;31.91;101918.94;4991217;28;20038;-68
2023/04/20 03:29:57;;;;;;;3.97;1.80;;;;;;;18.74;31.89;101922.34;5001959;28;20064;-70
2023/04/20 03:32:22;;;;;;;4.07;1.80;;;;;;;18.71;32.17;101916.41;5001734;28;20057;-68
2023/04/20 03:34:47;;;;;;;5.20;1.90;;;;;;;18.72;31.61;101918.13;4986223;28;20775;-71
2023/04/20 03:37:13;;;;;;;3.90;1.70;;;;;;;18.71;32.10;101917.28;4982034;28;20045;-71
2023/04/20 03:39:39;;;;;;;3.50;1.60;;;;;;;18.70;31.86;101917.38;4982346;28;20054;-69
2023/04/20 03:42:05;;;;;;;4.40;1.73;;;;;;;18.68;31.96;101918.31;4982151;28;20080;-69
2023/04/20 03:44:30;;;;;;;3.22;1.70;;;;;;;18.69;31.93;101908.59;4997591;28;20042;-69
2023/04/20 03:46:55;;;;;;;5.47;2.08;;;;;;;18.65;32.30;101900.03;4992645;28;20427;-70
2023/04/20 03:49:23;;;;;;;5.25;1.90;;;;;;;18.68;31.90;101897.19;5001673;28;20075;-69
2023/04/20 03:51:49;;;;;;;4.03;1.90;;;;;;;18.70;31.81;101897.09;5001352;28;20038;-71
2023/04/20 03:54:14;;;;;;;4.25;1.63;;;;;;;18.67;32.25;101900.81;4988903;28;20042;-69
2023/04/20 03:56:40;;;;;;;3.80;1.80;;;;;;;18.70;31.84;101904.19;4981801;28;20177;-68
2023/04/20 03:59:05;;;;;;;3.80;1.80;;;;;;;18.70;31.86;101904.19;4987258;28;20025;-69
2023/04/20 04:01:31;;;;;;;4.72;1.92;;;;;;;18.67;31.91;101898.16;4964196;28;20045;-69
2023/04/20 04:03:56;;;;;;;3.58;1.80;;;;;;;18.65;32.16;101894.75;4998365;28;20047;-69
2023/04/20 04:06:21;;;;;;;3.85;2.03;;;;;;;18.66;32.19;101900.91;4978823;28;20038;-69
2023/04/20 04:08:47;;;;;;;4.07;1.98;;;;;;;18.65;32.11;101900.03;4982887;28;20085;-69
2023/04/20 04:11:12;;;;;;;3.05;1.45;;;;;;;18.61;32.34;101888.00;4981960;28;20471;-69
2023/04/20 04:13:38;;;;;;;4.13;1.88;;;;;;;18.62;32.36;101879.13;4985490;28;20042;-70
2023/04/20 04:16:03;;;;;;;3.72;1.90;;;;;;;18.63;32.23;101882.63;4983851;28;20037;-69
2023/04/20 04:18:31;;;;;;;3.75;1.90;;;;;;;18.63;32.38;101887.91;4992809;28;20041;-68
2023/04/20 04:20:57;;;;;;;4.22;1.77;;;;;;;18.62;32.38;101884.41;4988591;28;20467;-69
2023/04/20 04:23:22;;;;;;;4.32;2.22;;;;;;;18.62;32.48;101875.66;4981414;28;20050;-70
2023/04/20 04:25:48;;;;;;;4.00;2.00;;;;;;;18.64;32.47;101879.03;4983789;28;20053;-69
2023/04/20 04:28:13;;;;;;;5.28;1.95;;;;;;;18.61;32.48;101868.66;4999487;28;20041;-70
2023/04/20 04:30:39;;;;;;;3.42;1.60;;;;;;;18.63;32.68;101877.34;4985499;28;20121;-70
2023/04/20 04:33:05;;;;;;;4.30;1.67;;;;;;;18.60;32.51;101854.63;4985990;28;20074;-69
2023/04/20 04:35:32;;;;;;;4.22;2.20;;;;;;;18.62;32.47;101850.06;4993376;28;20050;-71
2023/04/20 04:37:57;;;;;;;3.42;1.80;;;;;;;18.61;32.32;101847.53;4991713;28;20108;-69
2023/04/20 04:40:23;;;;;;;3.30;1.80;;;;;;;18.60;32.37;101845.88;4994036;28;20482;-68
2023/04/20 04:42:48;;;;;;;6.20;2.08;;;;;;;18.59;32.24;101839.72;4981505;28;20125;-69
2023/04/20 04:45:13;;;;;;;4.82;1.70;;;;;;;18.61;32.57;101839.63;4989448;28;20041;-68
2023/04/20 04:47:42;;;;;;;5.28;1.80;;;;;;;18.62;32.54;101836.03;4997355;28;20061;-68
2023/04/20 04:50:09;;;;;;;3.47;1.90;;;;;;;18.58;32.49;101835.41;4981745;28;20027;-68
2023/04/20 04:52:35;;;;;;;4.05;2.00;;;;;;;18.58;32.60;101835.41;4982551;28;20483;-69
2023/04/20 04:55:01;;;;;;;4.00;1.90;;;;;;;18.59;32.52;101836.25;4983180;28;20049;-69
2023/04/20 04:57:26;;;;;;;3.22;1.60;;;;;;;18.59;32.55;101830.97;5000697;28;20037;-68
2023/04/20 04:59:52;;;;;;;3.65;1.50;;;;;;;18.59;32.52;101830.97;4996388;28;20078;-68
2023/04/20 05:02:17;;;;;;;4.82;1.90;;;;;;;18.57;32.52;101832.88;4976766;28;20540;-69
2023/04/20 05:04:42;;;;;;;3.78;1.73;;;;;;;18.56;32.63;101832.00;4993822;28;20030;-69
2023/04/20 05:07:12;;;;;;;4.18;1.70;;;;;;;18.52;32.86;101829.69;4995635;28;20413;-72
2023/04/20 05:09:38;;;;;;;3.70;1.80;;;;;;;18.51;32.93;101834.13;4973422;28;20110;-69
2023/04/20 05:12:03;;;;;;;4.13;1.92;;;;;;;18.51;33.06;101833.28;4981678;28;20181;-70
2023/04/20 05:14:30;;;;;;;3.58;1.70;;;;;;;18.49;33.24;101836.88;4998352;28;20061;-70
2023/04/20 05:16:55;;;;;;;3.60;1.58;;;;;;;18.50;33.59;101832.44;4986212;28;20042;-68
2023/04/20 05:19:21;;;;;;;3.55;1.50;;;;;;;18.53;33.91;101836.66;4987833;28;20045;-68
2023/04/20 05:21:49;;;;;;;2.97;1.42;;;;;;;18.54;33.86;101833.91;4984769;28;20037;-70
2023/04/20 05:24:14;;;;;;;4.75;1.45;;;;;;;18.57;33.96;101831.06;4984814;28;20096;-70
2023/04/20 05:26:39;;;;;;;3.22;1.50;;;;;;;18.61;33.87;101826.41;4998742;28;20030;-69
2023/04/20 05:29:05;;;;;;;3.33;1.55;;;;;;;18.61;33.89;101824.66;4992468;28;20085;-68
2023/04/20 05:31:32;;;;;;;3.73;1.90;;;;;;;18.69;34.03;101832.03;5003639;28;20394;-69
2023/04/20 05:33:58;;;;;;;2.92;1.40;;;;;;;18.70;33.72;101825.81;4989989;28;20914;-72
2023/04/20 05:36:23;;;;;;;2.92;1.45;;;;;;;18.77;33.82;101835.00;4984672;28;20072;-69
2023/04/20 05:38:48;;;;;;;3.33;1.63;;;;;;;18.76;33.65;101825.38;5000445;28;20030;-67
2023/04/20 05:41:13;;;;;;;3.05;1.50;;;;;;;18.80;33.68;101826.00;4997084;28;20034;-69
2023/04/20 05:43:39;;;;;;;3.33;1.50;;;;;;;18.81;33.83;101833.81;4999186;28;20034;-69
2023/04/20 05:46:05;;;;;;;3.55;1.80;;;;;;;18.82;33.72;101824.97;4992808;28;20034;-70
2023/04/20 05:48:30;;;;;;;4.03;1.70;;;;;;;18.88;34.13;101822.88;4986763;28;20112;-68
2023/04/20 05:50:56;;;;;;;3.00;1.50;;;;;;;18.89;34.43;101822.78;4984261;28;20046;-69
2023/04/20 05:53:21;;;;;;;3.53;1.40;;;;;;;18.91;34.61;101812.94;4965862;28;20124;-69
2023/04/20 05:55:46;;;;;;;4.85;1.65;;;;;;;18.95;34.56;101814.44;4992565;28;20034;-68
2023/04/20 05:58:12;;;;;;;2.97;1.40;;;;;;;18.98;34.85;101816.84;4988253;28;20049;-70
2023/04/20 06:00:38;;;;;;;3.03;1.58;;;;;;;18.98;34.80;101814.22;4978954;28;20523;-71
2023/04/20 06:03:03;;;;;;;4.10;1.80;;;;;;;19.03;34.79;101822.66;4998938;28;20141;-69
2023/04/20 06:05:28;;;;;;;4.78;1.70;;;;;;;19.04;35.17;101818.22;5000374;28;20394;-71
2023/04/20 06:07:54;;;;;;;2.92;1.55;;;;;;;19.06;35.16;101816.31;4994684;28;20092;-70
2023/04/20 06:10:19;;;;;;;4.07;1.60;;;;;;;19.02;35.16;101809.56;4983546;28;20038;-69
2023/04/20 06:12:45;;;;;;;4.55;1.42;;;;;;;19.09;35.08;101820.53;4989813;28;20041;-69
2023/04/20 06:15:10;;;;;;;3.78;1.67;;;;;;;19.09;34.92;101810.84;5002872;28;20080;-68
2023/04/20 06:17:39;;;;;;;3.83;1.63;;;;;;;19.12;34.76;101812.41;5000506;28;20042;-69
2023/04/20 06:20:06;;;;;;;3.58;1.60;;;;;;;19.09;34.83;101813.47;5003243;28;20041;-70
2023/04/20 06:22:31;;;;;;;5.97;1.60;;;;;;;19.09;35.16;101799.41;4978180;28;20038;-73
2023/04/20 06:24:59;;;;;;;5.80;1.60;;;;;;;19.13;34.94;101801.72;4992635;28;20408;-70
2023/04/20 06:27:24;;;;;;;4.40;1.70;;;;;;;19.13;35.34;101809.66;4989240;28;20561;-70
2023/04/20 06:29:50;;;;;;;3.78;1.70;;;;;;;19.14;35.48;101803.41;4984253;28;20117;-69
2023/04/20 06:32:16;;;;;;;4.40;1.73;;;;;;;19.12;35.68;101802.69;4971400;28;20046;-71
2023/04/20 06:34:41;;;;;;;3.85;1.60;;;;;;;19.16;35.74;101803.31;4996418;28;20525;-72
2023/04/20 06:37:06;;;;;;;3.45;1.50;;;;;;;19.16;35.88;101808.59;4985376;28;20145;-68
2023/04/20 06:39:32;;;;;;;5.30;1.52;;;;;;;19.15;35.95;101791.91;4994440;28;20073;-70
2023/04/20 06:41:58;;;;;;;3.35;1.60;;;;;;;19.15;36.04;101786.63;4993968;28;20066;-69
2023/04/20 06:44:23;;;;;;;3.65;1.67;;;;;;;19.16;35.83;101800.66;4986068;28;20034;-74
2023/04/20 06:46:49;;;;;;;4.68;2.72;;;;;;;19.16;35.87;101788.28;4973738;28;20505;-70
2023/04/20 06:49:14;;;;;;;5.55;1.83;;;;;;;19.15;35.72;101786.63;4983260;28;20037;-70
2023/04/20 06:51:40;;;;;;;5.00;1.80;;;;;;;19.16;35.94;101790.09;4984229;28;20530;-72
2023/04/20 06:54:05;;;;;;;4.57;2.00;;;;;;;19.16;36.23;101784.81;4993428;28;20113;-67
2023/04/20 06:56:30;;;;;;;4.53;1.50;;;;;;;19.22;36.27;101800.25;4998129;28;20045;-68
2023/04/20 06:58:56;;;;;;;5.00;1.80;;;;;;;19.26;35.98;101787.63;4984549;28;20268;-65
2023/04/20 07:01:21;;;;;;;7.38;1.60;;;;;;;19.31;35.80;101786.38;4983660;28;20041;-68
2023/04/20 07:03:46;;;;;;;4.27;1.40;;;;;;;19.31;35.87;101782.88;4988769;28;20371;-67
2023/04/20 07:06:11;;;;;;;7.35;1.60;;;;;;;19.30;35.89;101789.13;4986054;28;20264;-66
2023/04/20 07:08:39;;;;;;;6.80;1.70;;;;;;;19.28;35.89;101797.16;4993664;28;20038;-70
2023/04/20 07:11:04;;;;;;;5.10;1.83;;;;;;;19.28;36.12;101783.09;4983059;28;20060;-68
2023/04/20 07:13:30;;;;;;;4.10;1.70;;;;;;;19.23;36.09;101786.06;4999780;28;20534;-68
2023/04/20 07:15:56;;;;;;;5.88;1.88;;;;;;;19.21;36.16;101775.59;4991943;28;20033;-71
2023/04/20 07:18:21;;;;;;;5.00;1.60;;;;;;;19.33;36.67;101786.25;4985095;28;20049;-70
2023/04/20 07:20:46;;;;;;;7.70;1.75;;;;;;;19.32;36.62;101788.03;5001740;28;20036;-69
2023/04/20 07:23:11;;;;;;;10.43;1.73;;;;;;;19.37;36.19;101798.28;4993777;28;20030;-75
2023/04/20 07:25:37;;;;;;;5.53;1.70;;;;;;;19.35;36.17;101795.75;4970235;28;20302;-70
2023/04/20 07:28:02;;;;;;;5.05;1.85;;;;;;;19.37;36.31;101798.28;4996723;28;20096;-70
2023/04/20 07:30:27;;;;;;;4.75;1.55;;;;;;;19.36;36.06;101791.34;4988809;28;20120;-69
2023/04/20 07:32:53;;;;;;;4.72;1.50;;;;;;;19.34;36.18;101785.28;4982454;28;20166;-71
2023/04/20 07:35:18;;;;;;;8.48;1.90;;;;;;;19.37;36.06;101796.47;4994040;28;20125;-73
2023/04/20 07:37:43;;;;;;;9.15;1.92;;;;;;;19.35;36.27;101792.28;4992851;28;20040;-70
2023/04/20 07:40:09;;;;;;;5.00;1.48;;;;;;;19.30;36.34;101787.31;4972217;28;20034;-72
2023/04/20 07:42:36;;;;;;;4.32;1.50;;;;;;;19.28;36.36;101794.53;4967034;28;20034;-70
2023/04/20 07:45:02;;;;;;;4.03;1.48;;;;;;;19.27;36.18;101784.06;4985351;28;20471;-72
2023/04/20 07:47:28;;;;;;;3.72;1.67;;;;;;;19.26;36.42;101783.19;4996037;28;20431;-71
2023/04/20 07:49:53;;;;;;;5.90;1.95;;;;;;;19.26;35.94;101785.84;4996532;28;20093;-78
2023/04/20 07:52:18;;;;;;;4.90;1.40;;;;;;;19.27;35.84;101784.88;4976687;28;20033;-77
2023/04/20 07:54:44;;;;;;;5.32;1.52;;;;;;;19.27;36.11;101784.88;4992771;28;20117;-76
2023/04/20 07:57:10;;;;;;;4.20;1.77;;;;;;;19.28;35.82;101783.09;4989301;28;20030;-75
2023/04/20 07:59:35;;;;;;;5.00;1.60;;;;;;;19.25;35.40;101780.66;4978577;28;20038;-77
2023/04/20 08:02:02;;;;;;;5.45;1.67;;;;;;;19.27;35.32;101778.78;4994424;28;20031;-77
2023/04/20 08:04:28;;;;;;;6.68;2.03;;;;;;;19.27;35.23;101781.41;4993536;28;20511;-77
2023/04/20 08:06:53;;;;;;;6.78;1.88;;;;;;;19.23;35.32;101785.22;4994903;28;20153;-76
2023/04/20 08:09:19;;;;;;;6.85;1.75;;;;;;;19.19;35.72;101782.78;4995516;28;20125;-76
2023/04/20 08:11:45;;;;;;;5.05;1.80;;;;;;;19.21;35.63;101787.97;4992731;28;20582;-77
2023/04/20 08:14:11;;;;;;;5.97;1.80;;;;;;;19.20;35.56;101778.34;4992362;28;20042;-77
2023/04/20 08:16:36;;;;;;;2.58;1.10;;;;;;;19.15;35.87;101773.41;4994892;28;20522;-77
2023/04/20 08:19:08;;;;;;;4.30;1.50;;;;;;;19.16;35.72;101780.38;4992779;28;20117;-74
2023/04/20 08:21:34;;;;;;;6.90;1.67;;;;;;;19.15;35.58;101770.78;4974393;28;20474;-71
2023/04/20 08:24:00;;;;;;;5.55;1.80;;;;;;;19.14;35.71;101765.59;4981760;28;20049;-69
2023/04/20 08:26:26;;;;;;;4.38;1.85;;;;;;;19.12;35.86;101768.34;4992256;28;20484;-71
2023/04/20 08:28:51;;;;;;;4.43;1.60;;;;;;;19.13;35.77;101761.25;4994273;28;20084;-71
2023/04/20 08:31:17;;;;;;;3.83;1.55;;;;;;;19.15;35.22;101761.97;4987509;28;20062;-69
2023/04/20 08:33:42;;;;;;;6.68;1.70;;;;;;;19.09;35.75;101755.34;4990675;28;20034;-70
2023/04/20 08:36:07;;;;;;;7.72;1.90;;;;;;;19.14;35.94;101752.38;4989306;28;20035;-70
2023/04/20 08:38:33;;;;;;;6.88;1.98;;;;;;;19.11;35.88;101753.44;4985608;28;20037;-70
2023/04/20 08:40:58;;;;;;;8.77;1.77;;;;;;;19.14;36.10;101757.66;4994963;28;20139;-69
2023/04/20 08:43:23;;;;;;;5.57;1.90;;;;;;;19.12;36.17;101746.34;4987188;28;20026;-68
2023/04/20 08:45:50;;;;;;;4.68;1.40;;;;;;;19.11;36.16;101740.22;4988329;28;20529;-69
2023/04/20 08:48:16;;;;;;;6.43;2.20;;;;;;;19.14;36.17;101744.44;4999694;28;20044;-70
2023/04/20 08:50:41;;;;;;;4.75;1.98;;;;;;;19.14;36.25;101745.28;4989040;28;20038;-69
2023/04/20 08:53:08;;;;;;;6.45;1.90;;;;;;;19.14;36.10;101740.00;4990250;28;20479;-70
2023/04/20 08:55:34;;;;;;;8.25;1.80;;;;;;;19.12;36.54;101736.63;4994592;28;20030;-70
2023/04/20 08:57:59;;;;;;;6.78;1.60;;;;;;;19.17;36.28;101742.44;4994269;28;20038;-71
2023/04/20 09:00:24;;;;;;;4.82;1.83;;;;;;;19.11;36.49;101732.28;4975017;28;20034;-69
2023/04/20 09:02:52;;;;;;;7.95;1.85;;;;;;;19.14;36.44;101733.88;4995766;28;20038;-69
2023/04/20 09:05:28;;;;;;;5.30;1.45;;;;;;;19.16;36.76;101734.63;4987390;28;20035;-69
2023/04/20 09:07:58;;;;;;;8.75;2.13;;;;;;;19.18;36.60;101732.69;4993886;28;20038;-70
2023/04/20 09:10:25;;;;;;;8.65;1.65;;;;;;;19.17;36.82;101731.03;4979319;28;20026;-70
2023/04/20 09:12:51;;;;;;;3.83;1.63;;;;;;;19.17;37.03;101731.03;4986467;28;20092;-69
2023/04/20 09:15:24;;;;;;;4.28;1.55;;;;;;;19.16;36.95;101726.69;4998015;28;20040;-67
2023/04/20 09:17:49;;;;;;;3.92;1.58;;;;;;;19.16;36.93;101731.97;5000811;28;20044;-72
2023/04/20 09:20:15;;;;;;;5.00;1.90;;;;;;;19.17;36.95;101728.38;5002805;28;20026;-70
2023/04/20 09:22:40;;;;;;;6.03;1.52;;;;;;;19.17;36.67;101734.50;4988133;28;20042;-71
2023/04/20 09:25:15;;;;;;;5.07;1.48;;;;;;;19.16;36.70;101734.63;4972142;28;20069;-71
2023/04/20 09:27:41;;;;;;;6.25;1.60;;;;;;;19.18;36.89;101736.19;4973900;28;20038;-69
2023/04/20 09:30:08;;;;;;;4.47;1.33;;;;;;;19.19;36.75;101729.94;5000216;28;20041;-70
2023/04/20 09:32:34;;;;;;;4.10;1.50;;;;;;;19.18;36.80;101732.69;4996207;28;20033;-68
2023/04/20 09:35:00;;;;;;;7.60;1.48;;;;;;;19.20;37.00;101733.41;4998995;28;20085;-68
2023/04/20 09:37:25;;;;;;;5.68;1.60;;;;;;;19.19;37.14;101735.22;4981676;28;20039;-71
2023/04/20 09:39:56;;;;;;;3.85;1.40;;;;;;;19.17;37.21;101737.16;4995820;28;20125;-72
2023/04/20 09:42:26;;;;;;;7.28;1.67;;;;;;;19.19;37.44;101737.88;4987453;28;20392;-69
2023/04/20 09:44:52;;;;;;;6.78;1.30;;;;;;;19.22;37.25;101726.25;4990158;28;20034;-69
2023/04/20 09:47:17;;;;;;;6.00;1.52;;;;;;;19.19;37.24;101727.28;4984820;28;20491;-69
2023/04/20 09:49:44;;;;;;;11.30;1.38;;;;;;;19.21;36.99;101717.44;4975773;28;20057;-69
2023/04/20 09:52:11;;;;;;;3.85;1.50;;;;;;;19.22;37.00;101720.97;4988086;28;20044;-69
2023/04/20 09:54:37;;;;;;;6.97;1.90;;;;;;;19.21;37.04;101717.44;4984455;28;20088;-71
2023/04/20 09:57:03;;;;;;;6.13;1.30;;;;;;;19.21;36.85;101720.09;4984338;28;20823;-69
2023/04/20 09:59:32;;;;;;;3.42;1.40;;;;;;;19.21;36.88;101709.53;4985501;28;20770;-70
2023/04/20 10:01:57;;;;;;;6.40;1.45;;;;;;;19.22;36.92;101697.19;4984195;28;20050;-71
2023/04/20 10:04:22;;;;;;;4.75;1.55;;;;;;;19.21;36.79;101692.84;5001305;28;20030;-71
2023/04/20 10:06:56;;;;;;;3.67;1.50;;;;;;;19.17;36.98;101684.28;4978714;28;20058;-69
2023/04/20 10:09:24;;;;;;;6.22;1.50;;;;;;;19.22;36.80;101694.53;4969709;28;20121;-70
2023/04/20 10:11:51;;;;;;;4.80;1.40;;;;;;;19.20;36.65;101689.38;4990818;28;20042;-70
2023/04/20 10:14:22;;;;;;;5.78;1.50;;;;;;;19.17;36.64;101692.22;4985619;28;20489;-69
2023/04/20 10:17:07;;;;;;;8.65;1.88;;;;;;;19.19;36.71;101694.75;4977925;28;20073;-69
2023/04/20 10:19:40;;;;;;;4.97;1.58;;;;;;;19.19;36.67;101692.13;4997523;28;20055;-73
2023/04/20 10:22:07;;;;;;;3.00;1.30;;;;;;;19.20;36.59;101696.41;5002212;28;20029;-70
2023/04/20 10:24:32;;;;;;;7.95;1.63;;;;;;;19.16;36.56;101689.69;4996519;28;20125;-70
2023/04/20 10:26:57;;;;;;;3.60;1.40;;;;;;;19.18;36.57;101688.63;4988780;28;20026;-70
2023/04/20 10:29:24;;;;;;;9.48;1.65;;;;;;;19.18;36.35;101688.63;4996772;28;20037;-71
2023/04/20 10:31:50;;;;;;;3.55;1.27;;;;;;;19.18;36.41;101693.91;4983294;28;20070;-68
2023/04/20 10:34:17;;;;;;;5.25;1.50;;;;;;;19.14;36.41;101696.91;4988672;28;20488;-70
2023/04/20 10:36:42;;;;;;;7.35;1.60;;;;;;;19.14;36.45;101689.81;4985896;28;20450;-68
2023/04/20 10:39:15;;;;;;;5.13;1.40;;;;;;;19.14;36.54;101692.44;4989623;28;20058;-71
2023/04/20 10:41:57;;;;;;;7.10;1.65;;;;;;;19.15;36.47;101688.00;4986669;28;20225;-75
2023/04/20 10:44:22;;;;;;;9.75;3.53;;;;;;;19.15;36.45;101680.94;4987124;28;20069;-72
2023/04/20 10:46:49;;;;;;;10.57;6.30;;;;;;;19.17;36.65;101675.53;4966783;28;20064;-69
2023/04/20 10:49:15;;;;;;;14.05;9.23;;;;;;;19.16;36.65;101665.91;4982782;28;20394;-71
2023/04/20 10:51:51;;;;;;;17.63;11.98;;;;;;;19.19;37.32;101674.44;4993686;28;20046;-72
2023/04/20 10:54:17;;;;;;;17.75;13.27;;;;;;;19.22;37.65;101668.09;4993265;28;20096;-73
2023/04/20 10:56:53;;;;;;;22.40;16.38;;;;;;;19.25;37.98;101672.31;4987969;28;20041;-72
2023/04/20 10:59:21;;;;;;;22.55;19.85;;;;;;;19.27;38.20;101665.97;4986877;28;20034;-71
2023/04/20 11:01:47;;;;;;;27.17;23.17;;;;;;;19.27;38.44;101670.41;4994759;28;20180;-72
2023/04/20 11:04:13;;;;;;;28.15;23.88;;;;;;;19.29;38.59;101663.22;4988506;28;20042;-69
2023/04/20 11:06:40;;;;;;;33.05;25.77;;;;;;;19.30;38.77;101664.91;4984613;28;20041;-73
2023/04/20 11:09:19;;;;;;;30.38;24.92;;;;;;;19.27;38.55;101651.91;4993907;28;20042;-70
2023/04/20 11:11:44;;;;;;;29.73;25.02;;;;;;;19.27;38.55;101659.84;4988250;28;20430;-71
2023/04/20 11:14:11;;;;;;;28.38;25.25;;;;;;;19.26;37.90;101658.16;4972883;28;20088;-69
2023/04/20 11:16:37;;;;;;;30.02;23.63;;;;;;;19.26;38.68;101663.44;4982849;28;20066;-66
2023/04/20 11:19:04;;;;;;;25.92;23.13;;;;;;;19.26;38.65;101658.97;4990535;28;20033;-67